Main page
METAR-TAF:

METAR-TAF

Airports :

Cork Airport

Cork, Ireland

latitude: 51-51N, longitude: 008-29W, elevation: 153 m

Current weather observation

The report was made 36 minutes ago, at 09:30 UTC
Wind 10 kt from the West/Northwest
Temperature 6°C
Humidity 75%
Pressure 1035 hPa
Visibility 10 km or more
Few clouds at a height of 2100 ft

METAR: EICK 240930Z 30010KT 9999 FEW021 06/02 Q1035 NOSIG

Time: 10:06 (10:06 UTC)

Forecast

The report was made 5 hours and 6 minutes ago, at 05:00 UTC
Forecast valid from 24 at 06 UTC to 25 at 06 UTC
Wind 5 kt from the Northwest
Visibility 10 km or more
Few clouds at a height of 2000 ft
Scattered clouds at a height of 4000 ft
Becoming
from 24 at 09 UTC to 24 at 12 UTC
Wind 15 kt from the Northwest
Becoming
from 24 at 23 UTC to 25 at 02 UTC
Wind 5 kt from the West/Northwest

TAF: EICK 240500Z 2406/2506 31005KT 9999 FEW020 SCT040 BECMG 2409/2412 31015KT BECMG 2423/2502 29005KT

Weather observations and forecasts of more than 4000 airports (METAR and TAF reports).

The available stations are represented by yellow and red dots on the map.

Hover mouse over dot to see the name of the station.

Then click to see weather observations and forecasts.

To change the map : click on the green buttons with a black cross to zoom in, on the green button with a dash to zoom out, or on the green arrows for adjacent maps.


METAR-TAF: